sensor_id;sensor_type;location;lat;lon;timestamp;P1;durP1;ratioP1;P2;durP2;ratioP2
34136;SDS011;20414;50.860;4.382;2022-11-15T00:00:47;1.67;;;1.58;;
34136;SDS011;20414;50.860;4.382;2022-11-15T00:03:16;1.50;;;1.40;;
34136;SDS011;20414;50.860;4.382;2022-11-15T00:05:43;1.75;;;1.55;;
34136;SDS011;20414;50.860;4.382;2022-11-15T00:08:10;1.52;;;1.20;;
34136;SDS011;20414;50.860;4.382;2022-11-15T00:10:36;1.70;;;1.30;;
34136;SDS011;20414;50.860;4.382;2022-11-15T00:13:09;1.45;;;1.35;;
34136;SDS011;20414;50.860;4.382;2022-11-15T00:15:37;1.42;;;1.33;;
34136;SDS011;20414;50.860;4.382;2022-11-15T00:18:04;1.60;;;1.30;;
34136;SDS011;20414;50.860;4.382;2022-11-15T00:20:31;1.48;;;1.38;;
34136;SDS011;20414;50.860;4.382;2022-11-15T00:22:59;1.35;;;1.25;;
34136;SDS011;20414;50.860;4.382;2022-11-15T00:25:25;1.75;;;1.60;;
34136;SDS011;20414;50.860;4.382;2022-11-15T00:27:54;1.30;;;1.20;;
34136;SDS011;20414;50.860;4.382;2022-11-15T00:30:21;1.55;;;1.38;;
34136;SDS011;20414;50.860;4.382;2022-11-15T00:32:47;1.92;;;1.50;;
34136;SDS011;20414;50.860;4.382;2022-11-15T00:35:13;1.50;;;1.40;;
34136;SDS011;20414;50.860;4.382;2022-11-15T00:37:42;1.35;;;1.25;;
34136;SDS011;20414;50.860;4.382;2022-11-15T00:40:08;1.50;;;1.33;;
34136;SDS011;20414;50.860;4.382;2022-11-15T00:42:35;1.50;;;1.33;;
34136;SDS011;20414;50.860;4.382;2022-11-15T00:45:00;1.60;;;1.30;;
34136;SDS011;20414;50.860;4.382;2022-11-15T00:47:26;1.70;;;1.45;;
34136;SDS011;20414;50.860;4.382;2022-11-15T00:49:52;1.50;;;1.38;;
34136;SDS011;20414;50.860;4.382;2022-11-15T00:52:17;1.35;;;1.23;;
34136;SDS011;20414;50.860;4.382;2022-11-15T00:54:43;1.50;;;1.25;;
34136;SDS011;20414;50.860;4.382;2022-11-15T00:57:09;1.40;;;1.30;;
34136;SDS011;20414;50.860;4.382;2022-11-15T00:59:34;1.48;;;1.38;;
34136;SDS011;20414;50.860;4.382;2022-11-15T01:02:00;1.77;;;1.25;;
34136;SDS011;20414;50.860;4.382;2022-11-15T01:04:26;1.30;;;1.17;;
34136;SDS011;20414;50.860;4.382;2022-11-15T01:06:52;1.40;;;1.20;;
34136;SDS011;20414;50.860;4.382;2022-11-15T01:09:18;1.60;;;1.48;;
34136;SDS011;20414;50.860;4.382;2022-11-15T01:11:43;1.25;;;1.10;;
34136;SDS011;20414;50.860;4.382;2022-11-15T01:14:09;1.40;;;1.30;;
34136;SDS011;20414;50.860;4.382;2022-11-15T01:16:35;1.58;;;1.30;;
34136;SDS011;20414;50.860;4.382;2022-11-15T01:19:01;1.45;;;1.30;;
34136;SDS011;20414;50.860;4.382;2022-11-15T01:21:27;1.40;;;1.17;;
34136;SDS011;20414;50.860;4.382;2022-11-15T01:23:53;1.27;;;1.17;;
34136;SDS011;20414;50.860;4.382;2022-11-15T01:26:20;1.30;;;1.20;;
34136;SDS011;20414;50.860;4.382;2022-11-15T01:28:46;1.50;;;1.20;;
34136;SDS011;20414;50.860;4.382;2022-11-15T01:31:13;1.30;;;1.20;;
34136;SDS011;20414;50.860;4.382;2022-11-15T01:33:40;1.30;;;1.10;;
34136;SDS011;20414;50.860;4.382;2022-11-15T01:36:11;1.25;;;1.15;;
34136;SDS011;20414;50.860;4.382;2022-11-15T01:38:47;1.20;;;1.10;;
34136;SDS011;20414;50.860;4.382;2022-11-15T01:41:23;1.58;;;1.25;;
34136;SDS011;20414;50.860;4.382;2022-11-15T01:43:54;1.40;;;1.27;;
34136;SDS011;20414;50.860;4.382;2022-11-15T01:46:32;1.63;;;1.30;;
34136;SDS011;20414;50.860;4.382;2022-11-15T01:49:04;2.55;;;1.40;;
34136;SDS011;20414;50.860;4.382;2022-11-15T01:51:45;1.10;;;1.00;;
34136;SDS011;20414;50.860;4.382;2022-11-15T01:54:13;1.98;;;1.13;;
34136;SDS011;20414;50.860;4.382;2022-11-15T01:56:52;1.85;;;1.30;;
34136;SDS011;20414;50.860;4.382;2022-11-15T01:59:23;2.90;;;1.20;;
34136;SDS011;20414;50.860;4.382;2022-11-15T02:01:49;1.50;;;1.17;;
34136;SDS011;20414;50.860;4.382;2022-11-15T02:04:23;1.48;;;1.30;;
34136;SDS011;20414;50.860;4.382;2022-11-15T02:06:52;1.33;;;1.23;;
34136;SDS011;20414;50.860;4.382;2022-11-15T02:09:18;1.30;;;1.20;;
34136;SDS011;20414;50.860;4.382;2022-11-15T02:11:44;1.20;;;1.10;;
34136;SDS011;20414;50.860;4.382;2022-11-15T02:14:12;1.15;;;1.05;;
34136;SDS011;20414;50.860;4.382;2022-11-15T02:25:13;1.70;;;1.23;;
34136;SDS011;20414;50.860;4.382;2022-11-15T02:38:58;1.40;;;1.30;;
34136;SDS011;20414;50.860;4.382;2022-11-15T02:41:31;1.35;;;1.23;;
34136;SDS011;20414;50.860;4.382;2022-11-15T02:44:04;1.30;;;1.13;;
34136;SDS011;20414;50.860;4.382;2022-11-15T02:49:43;1.92;;;1.33;;
34136;SDS011;20414;50.860;4.382;2022-11-15T02:52:15;1.30;;;0.98;;
34136;SDS011;20414;50.860;4.382;2022-11-15T02:54:54;1.45;;;1.20;;
34136;SDS011;20414;50.860;4.382;2022-11-15T02:57:29;1.45;;;1.20;;
34136;SDS011;20414;50.860;4.382;2022-11-15T03:00:02;1.20;;;1.10;;
34136;SDS011;20414;50.860;4.382;2022-11-15T03:05:31;1.15;;;1.05;;
34136;SDS011;20414;50.860;4.382;2022-11-15T03:08:24;1.85;;;1.27;;
34136;SDS011;20414;50.860;4.382;2022-11-15T03:13:39;1.08;;;0.98;;
34136;SDS011;20414;50.860;4.382;2022-11-15T03:16:37;1.42;;;1.00;;
34136;SDS011;20414;50.860;4.382;2022-11-15T03:19:14;1.52;;;1.17;;
34136;SDS011;20414;50.860;4.382;2022-11-15T03:21:55;1.17;;;1.08;;
34136;SDS011;20414;50.860;4.382;2022-11-15T03:24:23;2.55;;;1.10;;
34136;SDS011;20414;50.860;4.382;2022-11-15T03:26:50;1.20;;;1.10;;
34136;SDS011;20414;50.860;4.382;2022-11-15T03:29:21;2.40;;;1.30;;
34136;SDS011;20414;50.860;4.382;2022-11-15T03:31:52;1.17;;;1.08;;
34136;SDS011;20414;50.860;4.382;2022-11-15T03:34:29;1.70;;;1.00;;
34136;SDS011;20414;50.860;4.382;2022-11-15T03:36:59;1.00;;;0.90;;
34136;SDS011;20414;50.860;4.382;2022-11-15T03:39:25;1.10;;;1.00;;
34136;SDS011;20414;50.860;4.382;2022-11-15T03:44:53;1.40;;;1.10;;
34136;SDS011;20414;50.860;4.382;2022-11-15T03:47:26;1.20;;;1.10;;
34136;SDS011;20414;50.860;4.382;2022-11-15T03:50:12;2.47;;;1.42;;
34136;SDS011;20414;50.860;4.382;2022-11-15T03:52:41;1.40;;;0.88;;
34136;SDS011;20414;50.860;4.382;2022-11-15T03:55:10;1.60;;;1.10;;
34136;SDS011;20414;50.860;4.382;2022-11-15T03:57:38;1.33;;;1.10;;
34136;SDS011;20414;50.860;4.382;2022-11-15T04:00:04;1.08;;;0.98;;
34136;SDS011;20414;50.860;4.382;2022-11-15T04:02:30;1.10;;;1.00;;
34136;SDS011;20414;50.860;4.382;2022-11-15T04:04:56;1.77;;;1.20;;
34136;SDS011;20414;50.860;4.382;2022-11-15T04:07:22;1.42;;;1.20;;
34136;SDS011;20414;50.860;4.382;2022-11-15T04:09:47;1.13;;;1.02;;
34136;SDS011;20414;50.860;4.382;2022-11-15T04:12:36;0.80;;;0.80;;
34136;SDS011;20414;50.860;4.382;2022-11-15T04:15:07;1.13;;;1.00;;
34136;SDS011;20414;50.860;4.382;2022-11-15T04:22:54;1.35;;;1.00;;
34136;SDS011;20414;50.860;4.382;2022-11-15T04:25:39;1.08;;;0.98;;
34136;SDS011;20414;50.860;4.382;2022-11-15T04:28:06;1.10;;;1.00;;
34136;SDS011;20414;50.860;4.382;2022-11-15T04:30:31;1.30;;;1.08;;
34136;SDS011;20414;50.860;4.382;2022-11-15T04:32:57;1.17;;;1.08;;
34136;SDS011;20414;50.860;4.382;2022-11-15T04:35:23;1.20;;;1.05;;
34136;SDS011;20414;50.860;4.382;2022-11-15T04:37:49;1.88;;;1.00;;
34136;SDS011;20414;50.860;4.382;2022-11-15T04:40:15;1.30;;;0.98;;
34136;SDS011;20414;50.860;4.382;2022-11-15T04:42:41;1.10;;;1.00;;
34136;SDS011;20414;50.860;4.382;2022-11-15T04:45:07;1.40;;;1.00;;
34136;SDS011;20414;50.860;4.382;2022-11-15T04:47:34;1.10;;;0.95;;
34136;SDS011;20414;50.860;4.382;2022-11-15T04:49:59;1.48;;;0.98;;
34136;SDS011;20414;50.860;4.382;2022-11-15T04:52:25;1.30;;;1.00;;
34136;SDS011;20414;50.860;4.382;2022-11-15T04:54:51;2.05;;;0.90;;
34136;SDS011;20414;50.860;4.382;2022-11-15T04:57:17;1.27;;;0.90;;
34136;SDS011;20414;50.860;4.382;2022-11-15T04:59:42;1.17;;;1.08;;
34136;SDS011;20414;50.860;4.382;2022-11-15T05:02:08;1.15;;;1.00;;
34136;SDS011;20414;50.860;4.382;2022-11-15T05:04:35;0.88;;;0.70;;
34136;SDS011;20414;50.860;4.382;2022-11-15T05:07:00;1.10;;;1.00;;
34136;SDS011;20414;50.860;4.382;2022-11-15T05:09:27;1.00;;;0.90;;
34136;SDS011;20414;50.860;4.382;2022-11-15T05:11:52;1.30;;;0.93;;
34136;SDS011;20414;50.860;4.382;2022-11-15T05:14:18;1.30;;;0.88;;
34136;SDS011;20414;50.860;4.382;2022-11-15T05:16:43;1.10;;;0.93;;
34136;SDS011;20414;50.860;4.382;2022-11-15T05:19:09;1.20;;;1.00;;
34136;SDS011;20414;50.860;4.382;2022-11-15T05:21:35;1.10;;;1.00;;
34136;SDS011;20414;50.860;4.382;2022-11-15T05:24:02;1.30;;;1.10;;
34136;SDS011;20414;50.860;4.382;2022-11-15T05:26:28;1.15;;;0.88;;
34136;SDS011;20414;50.860;4.382;2022-11-15T05:28:54;0.90;;;0.90;;
34136;SDS011;20414;50.860;4.382;2022-11-15T05:31:22;1.00;;;0.90;;
34136;SDS011;20414;50.860;4.382;2022-11-15T05:33:49;1.77;;;1.08;;
34136;SDS011;20414;50.860;4.382;2022-11-15T05:39:04;0.95;;;0.80;;
34136;SDS011;20414;50.860;4.382;2022-11-15T05:41:32;0.90;;;0.80;;
34136;SDS011;20414;50.860;4.382;2022-11-15T05:46:26;0.80;;;0.80;;
34136;SDS011;20414;50.860;4.382;2022-11-15T05:48:52;1.02;;;0.90;;
34136;SDS011;20414;50.860;4.382;2022-11-15T05:51:20;1.20;;;1.10;;
34136;SDS011;20414;50.860;4.382;2022-11-15T05:53:47;0.90;;;0.85;;
34136;SDS011;20414;50.860;4.382;2022-11-15T05:56:14;1.23;;;0.80;;
34136;SDS011;20414;50.860;4.382;2022-11-15T05:58:40;1.23;;;0.90;;
34136;SDS011;20414;50.860;4.382;2022-11-15T06:01:06;1.17;;;0.90;;
34136;SDS011;20414;50.860;4.382;2022-11-15T06:03:32;1.08;;;0.93;;
34136;SDS011;20414;50.860;4.382;2022-11-15T06:05:57;1.10;;;1.00;;
34136;SDS011;20414;50.860;4.382;2022-11-15T06:08:23;1.30;;;0.98;;
34136;SDS011;20414;50.860;4.382;2022-11-15T06:10:49;1.15;;;0.93;;
34136;SDS011;20414;50.860;4.382;2022-11-15T06:13:14;1.67;;;1.00;;
34136;SDS011;20414;50.860;4.382;2022-11-15T06:15:40;0.88;;;0.80;;
34136;SDS011;20414;50.860;4.382;2022-11-15T06:18:05;1.02;;;0.93;;
34136;SDS011;20414;50.860;4.382;2022-11-15T06:20:31;1.00;;;0.80;;
34136;SDS011;20414;50.860;4.382;2022-11-15T06:23:01;0.80;;;0.80;;
34136;SDS011;20414;50.860;4.382;2022-11-15T06:25:28;0.90;;;0.90;;
34136;SDS011;20414;50.860;4.382;2022-11-15T06:27:55;0.80;;;0.80;;
34136;SDS011;20414;50.860;4.382;2022-11-15T06:30:22;0.95;;;0.82;;
34136;SDS011;20414;50.860;4.382;2022-11-15T06:32:49;1.10;;;0.70;;
34136;SDS011;20414;50.860;4.382;2022-11-15T06:35:15;0.80;;;0.80;;
34136;SDS011;20414;50.860;4.382;2022-11-15T06:37:41;1.77;;;1.00;;
34136;SDS011;20414;50.860;4.382;2022-11-15T06:40:07;1.33;;;0.80;;
34136;SDS011;20414;50.860;4.382;2022-11-15T06:42:34;1.10;;;0.73;;
34136;SDS011;20414;50.860;4.382;2022-11-15T06:45:00;0.80;;;0.73;;
34136;SDS011;20414;50.860;4.382;2022-11-15T06:47:27;1.00;;;0.90;;
34136;SDS011;20414;50.860;4.382;2022-11-15T06:49:53;0.80;;;0.80;;
34136;SDS011;20414;50.860;4.382;2022-11-15T06:52:18;1.13;;;0.80;;
34136;SDS011;20414;50.860;4.382;2022-11-15T06:54:44;0.95;;;0.70;;
34136;SDS011;20414;50.860;4.382;2022-11-15T06:57:10;0.73;;;0.70;;
34136;SDS011;20414;50.860;4.382;2022-11-15T06:59:36;0.63;;;0.60;;
34136;SDS011;20414;50.860;4.382;2022-11-15T07:02:02;0.55;;;0.45;;
34136;SDS011;20414;50.860;4.382;2022-11-15T07:04:27;1.00;;;0.82;;
34136;SDS011;20414;50.860;4.382;2022-11-15T07:06:53;0.70;;;0.70;;
34136;SDS011;20414;50.860;4.382;2022-11-15T07:09:19;0.77;;;0.77;;
34136;SDS011;20414;50.860;4.382;2022-11-15T07:11:44;1.60;;;0.80;;
34136;SDS011;20414;50.860;4.382;2022-11-15T07:14:10;0.90;;;0.70;;
34136;SDS011;20414;50.860;4.382;2022-11-15T07:16:36;0.65;;;0.63;;
34136;SDS011;20414;50.860;4.382;2022-11-15T07:19:02;0.70;;;0.70;;
34136;SDS011;20414;50.860;4.382;2022-11-15T07:21:28;1.02;;;0.93;;
34136;SDS011;20414;50.860;4.382;2022-11-15T07:23:53;0.80;;;0.70;;
34136;SDS011;20414;50.860;4.382;2022-11-15T07:26:19;0.85;;;0.70;;
34136;SDS011;20414;50.860;4.382;2022-11-15T07:28:45;0.98;;;0.90;;
34136;SDS011;20414;50.860;4.382;2022-11-15T07:31:11;0.70;;;0.70;;
34136;SDS011;20414;50.860;4.382;2022-11-15T07:33:37;0.98;;;0.68;;
34136;SDS011;20414;50.860;4.382;2022-11-15T07:36:03;0.93;;;0.70;;
34136;SDS011;20414;50.860;4.382;2022-11-15T07:38:30;0.93;;;0.82;;
34136;SDS011;20414;50.860;4.382;2022-11-15T07:40:57;1.00;;;0.90;;
34136;SDS011;20414;50.860;4.382;2022-11-15T07:43:24;2.92;;;0.80;;
34136;SDS011;20414;50.860;4.382;2022-11-15T07:45:50;1.38;;;0.70;;
34136;SDS011;20414;50.860;4.382;2022-11-15T07:48:16;0.70;;;0.70;;
34136;SDS011;20414;50.860;4.382;2022-11-15T07:50:42;1.05;;;0.63;;
34136;SDS011;20414;50.860;4.382;2022-11-15T07:53:08;0.70;;;0.70;;
34136;SDS011;20414;50.860;4.382;2022-11-15T07:55:34;1.40;;;0.80;;
34136;SDS011;20414;50.860;4.382;2022-11-15T07:58:03;0.70;;;0.60;;
34136;SDS011;20414;50.860;4.382;2022-11-15T08:00:30;1.27;;;0.70;;
34136;SDS011;20414;50.860;4.382;2022-11-15T08:03:03;1.77;;;0.70;;
34136;SDS011;20414;50.860;4.382;2022-11-15T08:05:30;1.35;;;0.70;;
34136;SDS011;20414;50.860;4.382;2022-11-15T08:07:56;0.63;;;0.50;;
34136;SDS011;20414;50.860;4.382;2022-11-15T08:10:22;1.20;;;0.70;;
34136;SDS011;20414;50.860;4.382;2022-11-15T08:12:48;0.60;;;0.60;;
34136;SDS011;20414;50.860;4.382;2022-11-15T08:15:22;1.20;;;0.70;;
34136;SDS011;20414;50.860;4.382;2022-11-15T08:17:52;1.17;;;0.80;;
34136;SDS011;20414;50.860;4.382;2022-11-15T08:20:20;1.38;;;0.60;;
34136;SDS011;20414;50.860;4.382;2022-11-15T08:22:46;1.00;;;0.75;;
34136;SDS011;20414;50.860;4.382;2022-11-15T08:25:11;0.77;;;0.60;;
34136;SDS011;20414;50.860;4.382;2022-11-15T08:27:37;0.95;;;0.88;;
34136;SDS011;20414;50.860;4.382;2022-11-15T08:30:03;0.90;;;0.80;;
34136;SDS011;20414;50.860;4.382;2022-11-15T08:32:30;0.85;;;0.70;;
34136;SDS011;20414;50.860;4.382;2022-11-15T08:34:56;0.90;;;0.70;;
34136;SDS011;20414;50.860;4.382;2022-11-15T08:37:22;1.13;;;0.70;;
34136;SDS011;20414;50.860;4.382;2022-11-15T08:39:47;1.05;;;0.70;;
34136;SDS011;20414;50.860;4.382;2022-11-15T08:42:13;0.63;;;0.63;;
34136;SDS011;20414;50.860;4.382;2022-11-15T08:44:41;1.45;;;0.80;;
34136;SDS011;20414;50.860;4.382;2022-11-15T08:47:09;1.15;;;0.88;;
34136;SDS011;20414;50.860;4.382;2022-11-15T08:49:36;0.85;;;0.68;;
34136;SDS011;20414;50.860;4.382;2022-11-15T08:52:02;0.80;;;0.60;;
34136;SDS011;20414;50.860;4.382;2022-11-15T08:54:28;1.52;;;0.77;;
34136;SDS011;20414;50.860;4.382;2022-11-15T08:56:53;0.73;;;0.70;;
34136;SDS011;20414;50.860;4.382;2022-11-15T08:59:19;1.48;;;0.80;;
34136;SDS011;20414;50.860;4.382;2022-11-15T09:01:44;1.00;;;0.68;;
34136;SDS011;20414;50.860;4.382;2022-11-15T09:04:10;1.50;;;0.82;;
34136;SDS011;20414;50.860;4.382;2022-11-15T09:06:36;0.95;;;0.60;;
34136;SDS011;20414;50.860;4.382;2022-11-15T09:09:02;1.35;;;0.60;;
34136;SDS011;20414;50.860;4.382;2022-11-15T09:11:28;1.02;;;0.90;;
34136;SDS011;20414;50.860;4.382;2022-11-15T09:13:54;1.23;;;0.60;;
34136;SDS011;20414;50.860;4.382;2022-11-15T09:16:19;0.75;;;0.70;;
34136;SDS011;20414;50.860;4.382;2022-11-15T09:18:45;1.13;;;0.70;;
34136;SDS011;20414;50.860;4.382;2022-11-15T09:21:11;1.30;;;0.65;;
34136;SDS011;20414;50.860;4.382;2022-11-15T09:23:37;0.60;;;0.60;;
34136;SDS011;20414;50.860;4.382;2022-11-15T09:26:03;0.75;;;0.60;;
34136;SDS011;20414;50.860;4.382;2022-11-15T09:28:30;1.65;;;0.60;;
34136;SDS011;20414;50.860;4.382;2022-11-15T09:30:57;1.48;;;0.60;;
34136;SDS011;20414;50.860;4.382;2022-11-15T09:33:24;1.98;;;0.68;;
34136;SDS011;20414;50.860;4.382;2022-11-15T09:35:50;0.68;;;0.50;;
34136;SDS011;20414;50.860;4.382;2022-11-15T09:38:16;0.70;;;0.70;;
34136;SDS011;20414;50.860;4.382;2022-11-15T09:40:41;1.08;;;0.65;;
34136;SDS011;20414;50.860;4.382;2022-11-15T09:46:24;3.05;;;0.80;;
34136;SDS011;20414;50.860;4.382;2022-11-15T09:49:02;1.50;;;0.60;;
34136;SDS011;20414;50.860;4.382;2022-11-15T09:51:30;1.90;;;0.80;;
34136;SDS011;20414;50.860;4.382;2022-11-15T09:54:04;1.58;;;0.60;;
34136;SDS011;20414;50.860;4.382;2022-11-15T09:56:50;0.77;;;0.70;;
34136;SDS011;20414;50.860;4.382;2022-11-15T10:04:46;0.73;;;0.70;;
34136;SDS011;20414;50.860;4.382;2022-11-15T10:07:13;1.30;;;0.60;;
34136;SDS011;20414;50.860;4.382;2022-11-15T10:12:53;2.55;;;0.60;;
34136;SDS011;20414;50.860;4.382;2022-11-15T10:15:20;1.25;;;0.60;;
34136;SDS011;20414;50.860;4.382;2022-11-15T10:18:07;0.60;;;0.50;;
34136;SDS011;20414;50.860;4.382;2022-11-15T10:20:50;0.93;;;0.65;;
34136;SDS011;20414;50.860;4.382;2022-11-15T10:23:33;0.65;;;0.60;;
34136;SDS011;20414;50.860;4.382;2022-11-15T10:25:59;0.90;;;0.60;;
34136;SDS011;20414;50.860;4.382;2022-11-15T10:28:26;0.68;;;0.50;;
34136;SDS011;20414;50.860;4.382;2022-11-15T10:30:58;1.00;;;0.55;;
34136;SDS011;20414;50.860;4.382;2022-11-15T10:41:16;0.60;;;0.50;;
34136;SDS011;20414;50.860;4.382;2022-11-15T10:44:17;1.58;;;0.57;;
34136;SDS011;20414;50.860;4.382;2022-11-15T10:49:23;0.52;;;0.50;;
34136;SDS011;20414;50.860;4.382;2022-11-15T10:54:29;0.63;;;0.52;;
34136;SDS011;20414;50.860;4.382;2022-11-15T10:56:58;1.58;;;0.57;;
34136;SDS011;20414;50.860;4.382;2022-11-15T10:59:27;1.15;;;0.50;;
34136;SDS011;20414;50.860;4.382;2022-11-15T11:01:55;1.05;;;0.40;;
34136;SDS011;20414;50.860;4.382;2022-11-15T11:04:21;1.13;;;0.50;;
34136;SDS011;20414;50.860;4.382;2022-11-15T11:06:48;1.55;;;0.60;;
34136;SDS011;20414;50.860;4.382;2022-11-15T11:11:52;0.68;;;0.50;;
34136;SDS011;20414;50.860;4.382;2022-11-15T11:23:42;1.35;;;0.70;;
34136;SDS011;20414;50.860;4.382;2022-11-15T11:33:46;1.07;;;0.40;;
34136;SDS011;20414;50.860;4.382;2022-11-15T11:36:54;0.57;;;0.40;;
34136;SDS011;20414;50.860;4.382;2022-11-15T11:47:53;1.27;;;0.50;;
34136;SDS011;20414;50.860;4.382;2022-11-15T11:50:48;1.50;;;0.50;;
34136;SDS011;20414;50.860;4.382;2022-11-15T11:56:18;1.33;;;0.60;;
34136;SDS011;20414;50.860;4.382;2022-11-15T12:08:51;1.75;;;0.55;;
34136;SDS011;20414;50.860;4.382;2022-11-15T12:14:12;0.45;;;0.43;;
34136;SDS011;20414;50.860;4.382;2022-11-15T12:17:14;0.93;;;0.50;;
34136;SDS011;20414;50.860;4.382;2022-11-15T12:19:46;1.30;;;0.50;;
34136;SDS011;20414;50.860;4.382;2022-11-15T12:22:19;0.75;;;0.50;;
34136;SDS011;20414;50.860;4.382;2022-11-15T12:24:50;1.27;;;0.50;;
34136;SDS011;20414;50.860;4.382;2022-11-15T12:27:54;0.65;;;0.40;;
34136;SDS011;20414;50.860;4.382;2022-11-15T12:30:23;0.95;;;0.50;;
34136;SDS011;20414;50.860;4.382;2022-11-15T12:33:05;0.90;;;0.50;;
34136;SDS011;20414;50.860;4.382;2022-11-15T12:35:57;0.95;;;0.38;;
34136;SDS011;20414;50.860;4.382;2022-11-15T12:41:32;0.70;;;0.40;;
34136;SDS011;20414;50.860;4.382;2022-11-15T12:43:59;0.95;;;0.40;;
34136;SDS011;20414;50.860;4.382;2022-11-15T12:52:10;0.57;;;0.40;;
34136;SDS011;20414;50.860;4.382;2022-11-15T13:04:53;0.65;;;0.30;;
34136;SDS011;20414;50.860;4.382;2022-11-15T13:22:49;0.55;;;0.30;;
34136;SDS011;20414;50.860;4.382;2022-11-15T13:28:24;0.70;;;0.50;;
34136;SDS011;20414;50.860;4.382;2022-11-15T13:31:02;1.42;;;0.50;;
34136;SDS011;20414;50.860;4.382;2022-11-15T13:33:47;1.00;;;0.43;;
34136;SDS011;20414;50.860;4.382;2022-11-15T13:38:57;0.50;;;0.40;;
34136;SDS011;20414;50.860;4.382;2022-11-15T13:41:30;0.40;;;0.38;;
34136;SDS011;20414;50.860;4.382;2022-11-15T13:44:00;0.50;;;0.40;;
34136;SDS011;20414;50.860;4.382;2022-11-15T13:46:30;0.65;;;0.60;;
34136;SDS011;20414;50.860;4.382;2022-11-15T13:48:59;0.35;;;0.25;;
34136;SDS011;20414;50.860;4.382;2022-11-15T13:51:36;0.82;;;0.50;;
34136;SDS011;20414;50.860;4.382;2022-11-15T13:54:22;0.30;;;0.30;;
34136;SDS011;20414;50.860;4.382;2022-11-15T13:56:59;1.00;;;0.50;;
34136;SDS011;20414;50.860;4.382;2022-11-15T13:59:33;0.88;;;0.43;;
34136;SDS011;20414;50.860;4.382;2022-11-15T14:02:14;0.20;;;0.20;;
34136;SDS011;20414;50.860;4.382;2022-11-15T14:04:53;0.40;;;0.30;;
34136;SDS011;20414;50.860;4.382;2022-11-15T14:07:24;0.50;;;0.30;;
34136;SDS011;20414;50.860;4.382;2022-11-15T14:09:52;2.33;;;0.70;;
34136;SDS011;20414;50.860;4.382;2022-11-15T14:14:55;1.13;;;0.35;;
34136;SDS011;20414;50.860;4.382;2022-11-15T14:19:54;0.30;;;0.30;;
34136;SDS011;20414;50.860;4.382;2022-11-15T14:22:22;0.52;;;0.40;;
34136;SDS011;20414;50.860;4.382;2022-11-15T14:27:44;0.52;;;0.30;;
34136;SDS011;20414;50.860;4.382;2022-11-15T14:30:30;0.93;;;0.35;;
34136;SDS011;20414;50.860;4.382;2022-11-15T14:32:56;0.35;;;0.30;;
34136;SDS011;20414;50.860;4.382;2022-11-15T14:35:22;1.00;;;0.40;;
34136;SDS011;20414;50.860;4.382;2022-11-15T14:37:48;0.38;;;0.25;;
34136;SDS011;20414;50.860;4.382;2022-11-15T14:40:15;0.75;;;0.20;;
34136;SDS011;20414;50.860;4.382;2022-11-15T14:42:46;1.02;;;0.40;;
34136;SDS011;20414;50.860;4.382;2022-11-15T14:47:46;0.47;;;0.30;;
34136;SDS011;20414;50.860;4.382;2022-11-15T14:50:16;0.47;;;0.30;;
34136;SDS011;20414;50.860;4.382;2022-11-15T14:52:44;0.50;;;0.40;;
34136;SDS011;20414;50.860;4.382;2022-11-15T14:57:41;2.40;;;0.43;;
34136;SDS011;20414;50.860;4.382;2022-11-15T15:00:07;0.38;;;0.22;;
34136;SDS011;20414;50.860;4.382;2022-11-15T15:02:35;0.50;;;0.40;;
34136;SDS011;20414;50.860;4.382;2022-11-15T15:05:01;0.57;;;0.45;;
34136;SDS011;20414;50.860;4.382;2022-11-15T15:07:39;1.05;;;0.40;;
34136;SDS011;20414;50.860;4.382;2022-11-15T15:10:05;0.50;;;0.30;;
34136;SDS011;20414;50.860;4.382;2022-11-15T15:12:31;0.45;;;0.40;;
34136;SDS011;20414;50.860;4.382;2022-11-15T15:14:56;1.08;;;0.30;;
34136;SDS011;20414;50.860;4.382;2022-11-15T15:17:22;0.73;;;0.30;;
34136;SDS011;20414;50.860;4.382;2022-11-15T15:19:47;0.50;;;0.30;;
34136;SDS011;20414;50.860;4.382;2022-11-15T15:22:17;0.22;;;0.22;;
34136;SDS011;20414;50.860;4.382;2022-11-15T15:24:46;0.35;;;0.22;;
34136;SDS011;20414;50.860;4.382;2022-11-15T15:27:12;0.60;;;0.45;;
34136;SDS011;20414;50.860;4.382;2022-11-15T15:29:38;0.20;;;0.20;;
34136;SDS011;20414;50.860;4.382;2022-11-15T15:32:04;0.63;;;0.28;;
34136;SDS011;20414;50.860;4.382;2022-11-15T15:34:31;0.43;;;0.30;;
34136;SDS011;20414;50.860;4.382;2022-11-15T15:39:53;0.73;;;0.30;;
34136;SDS011;20414;50.860;4.382;2022-11-15T15:42:20;0.30;;;0.30;;
34136;SDS011;20414;50.860;4.382;2022-11-15T15:44:46;0.50;;;0.35;;
34136;SDS011;20414;50.860;4.382;2022-11-15T15:47:22;0.45;;;0.20;;
34136;SDS011;20414;50.860;4.382;2022-11-15T15:49:49;0.22;;;0.22;;
34136;SDS011;20414;50.860;4.382;2022-11-15T15:52:15;1.38;;;0.40;;
34136;SDS011;20414;50.860;4.382;2022-11-15T15:54:42;0.30;;;0.25;;
34136;SDS011;20414;50.860;4.382;2022-11-15T15:57:08;0.32;;;0.20;;
34136;SDS011;20414;50.860;4.382;2022-11-15T15:59:37;0.30;;;0.20;;
34136;SDS011;20414;50.860;4.382;2022-11-15T16:02:02;0.88;;;0.30;;
34136;SDS011;20414;50.860;4.382;2022-11-15T16:04:28;0.63;;;0.30;;
34136;SDS011;20414;50.860;4.382;2022-11-15T16:06:58;0.35;;;0.20;;
34136;SDS011;20414;50.860;4.382;2022-11-15T16:09:24;0.40;;;0.30;;
34136;SDS011;20414;50.860;4.382;2022-11-15T16:12:09;1.08;;;0.40;;
34136;SDS011;20414;50.860;4.382;2022-11-15T16:14:34;0.85;;;0.30;;
34136;SDS011;20414;50.860;4.382;2022-11-15T16:17:00;0.20;;;0.20;;
34136;SDS011;20414;50.860;4.382;2022-11-15T16:19:26;0.43;;;0.30;;
34136;SDS011;20414;50.860;4.382;2022-11-15T16:21:52;0.55;;;0.25;;
34136;SDS011;20414;50.860;4.382;2022-11-15T16:24:18;0.30;;;0.30;;
34136;SDS011;20414;50.860;4.382;2022-11-15T16:26:44;0.20;;;0.20;;
34136;SDS011;20414;50.860;4.382;2022-11-15T16:29:10;0.43;;;0.30;;
34136;SDS011;20414;50.860;4.382;2022-11-15T16:31:36;0.52;;;0.30;;
34136;SDS011;20414;50.860;4.382;2022-11-15T16:34:02;0.40;;;0.30;;
34136;SDS011;20414;50.860;4.382;2022-11-15T16:36:30;0.43;;;0.30;;
34136;SDS011;20414;50.860;4.382;2022-11-15T16:38:57;0.30;;;0.30;;
34136;SDS011;20414;50.860;4.382;2022-11-15T16:41:23;0.20;;;0.20;;
34136;SDS011;20414;50.860;4.382;2022-11-15T16:43:49;0.82;;;0.30;;
34136;SDS011;20414;50.860;4.382;2022-11-15T16:46:19;0.30;;;0.30;;
34136;SDS011;20414;50.860;4.382;2022-11-15T16:48:46;0.57;;;0.40;;
34136;SDS011;20414;50.860;4.382;2022-11-15T16:51:13;0.20;;;0.20;;
34136;SDS011;20414;50.860;4.382;2022-11-15T16:53:38;0.30;;;0.28;;
34136;SDS011;20414;50.860;4.382;2022-11-15T16:56:12;0.75;;;0.20;;
34136;SDS011;20414;50.860;4.382;2022-11-15T16:58:44;0.77;;;0.40;;
34136;SDS011;20414;50.860;4.382;2022-11-15T17:01:17;0.50;;;0.25;;
34136;SDS011;20414;50.860;4.382;2022-11-15T17:03:45;0.30;;;0.20;;
34136;SDS011;20414;50.860;4.382;2022-11-15T17:06:11;0.35;;;0.20;;
34136;SDS011;20414;50.860;4.382;2022-11-15T17:08:38;0.35;;;0.30;;
34136;SDS011;20414;50.860;4.382;2022-11-15T17:11:04;0.45;;;0.22;;
34136;SDS011;20414;50.860;4.382;2022-11-15T17:13:31;0.40;;;0.20;;
34136;SDS011;20414;50.860;4.382;2022-11-15T17:16:07;0.20;;;0.17;;
34136;SDS011;20414;50.860;4.382;2022-11-15T17:18:35;0.50;;;0.30;;
34136;SDS011;20414;50.860;4.382;2022-11-15T17:21:04;0.30;;;0.20;;
34136;SDS011;20414;50.860;4.382;2022-11-15T17:26:07;0.40;;;0.30;;
34136;SDS011;20414;50.860;4.382;2022-11-15T17:28:35;0.30;;;0.30;;
34136;SDS011;20414;50.860;4.382;2022-11-15T17:31:04;0.40;;;0.20;;
34136;SDS011;20414;50.860;4.382;2022-11-15T17:33:34;0.50;;;0.30;;
34136;SDS011;20414;50.860;4.382;2022-11-15T17:36:02;0.40;;;0.28;;
34136;SDS011;20414;50.860;4.382;2022-11-15T17:38:29;0.40;;;0.40;;
34136;SDS011;20414;50.860;4.382;2022-11-15T17:41:02;0.57;;;0.35;;
34136;SDS011;20414;50.860;4.382;2022-11-15T17:43:36;0.43;;;0.30;;
34136;SDS011;20414;50.860;4.382;2022-11-15T17:46:06;0.50;;;0.30;;
34136;SDS011;20414;50.860;4.382;2022-11-15T17:48:33;0.80;;;0.25;;